EJU42XL LSGG-EHAM
Flight info
| Callsign | EJU42XL |
|---|---|
| Flight time | 1h 8m |
| Altitude | 36000 |
| Route | ARBOS DCT PENDU DCT IXILU DCT GIVOR DCT SORAL DCT IBERA DCT BUB Y28 HELEN |
| Aircraft | A320/M-SDE2E3FGHIJ1RWXYZ/LB1 |
Departure
| Time | 2026-05-07 18:32 |
|---|---|
| Airport | Geneva International Airport (LSGG) |
Arrival
| Time | 2026-05-07 19:41 |
|---|---|
| Airport | Amsterdam Airport Schiphol (EHAM) |
| Time | Latitude | Longitude | Altitude | Speed | Heading |
|---|---|---|---|---|---|
| 2026-05-07 17:58 | 46.23009 | 6.10343 | 1401 ft | 0 kts | 90° |
| 2026-05-07 18:23 | 46.23010 | 6.10346 | 1401 ft | 1 kts | 76° |
| 2026-05-07 18:23 | 46.23007 | 6.10368 | 1393 ft | 2 kts | 112° |
| 2026-05-07 18:23 | 46.22976 | 6.10380 | 1399 ft | 5 kts | 197° |
| 2026-05-07 18:23 | 46.22957 | 6.10347 | 1397 ft | 6 kts | 246° |
| 2026-05-07 18:24 | 46.22961 | 6.10296 | 1393 ft | 7 kts | 300° |
| 2026-05-07 18:24 | 46.23012 | 6.10217 | 1395 ft | 8 kts | 317° |
| 2026-05-07 18:24 | 46.23044 | 6.10175 | 1399 ft | 6 kts | 314° |
| 2026-05-07 18:24 | 46.23043 | 6.10111 | 1394 ft | 6 kts | 235° |
| 2026-05-07 18:25 | 46.23001 | 6.10049 | 1400 ft | 14 kts | 226° |
| 2026-05-07 18:25 | 46.22924 | 6.09935 | 1399 ft | 15 kts | 226° |
| 2026-05-07 18:25 | 46.22856 | 6.09835 | 1398 ft | 13 kts | 225° |
| 2026-05-07 18:25 | 46.22798 | 6.09748 | 1395 ft | 11 kts | 225° |
| 2026-05-07 18:26 | 46.22725 | 6.09643 | 1399 ft | 16 kts | 225° |
| 2026-05-07 18:26 | 46.22651 | 6.09535 | 1400 ft | 14 kts | 225° |
| 2026-05-07 18:26 | 46.22583 | 6.09432 | 1401 ft | 13 kts | 231° |
| 2026-05-07 18:26 | 46.22554 | 6.09335 | 1404 ft | 8 kts | 259° |
| 2026-05-07 18:27 | 46.22550 | 6.09277 | 1407 ft | 4 kts | 268° |
| 2026-05-07 18:27 | 46.22550 | 6.09264 | 1408 ft | 0 kts | 269° |
| 2026-05-07 18:29 | 46.22550 | 6.09261 | 1408 ft | 2 kts | 269° |
| 2026-05-07 18:29 | 46.22556 | 6.09207 | 1412 ft | 5 kts | 292° |
| 2026-05-07 18:29 | 46.22598 | 6.09159 | 1417 ft | 12 kts | 346° |
| 2026-05-07 18:30 | 46.22658 | 6.09209 | 1417 ft | 8 kts | 45° |
| 2026-05-07 18:30 | 46.22668 | 6.09224 | 1420 ft | 0 kts | 45° |
| 2026-05-07 18:31 | 46.22669 | 6.09226 | 1420 ft | 2 kts | 45° |
| 2026-05-07 18:31 | 46.22769 | 6.09373 | 1418 ft | 52 kts | 46° |
| 2026-05-07 18:31 | 46.23184 | 6.09982 | 1411 ft | 116 kts | 45° |
| 2026-05-07 18:32 | 46.23615 | 6.10615 | 1383 ft | 150 kts | 45° |
| 2026-05-07 18:32 | 46.24426 | 6.11821 | 1630 ft | 171 kts | 46° |
| 2026-05-07 18:32 | 46.25218 | 6.13055 | 2424 ft | 166 kts | 45° |
| 2026-05-07 18:32 | 46.26016 | 6.14302 | 3073 ft | 171 kts | 47° |
| 2026-05-07 18:33 | 46.26837 | 6.15577 | 3645 ft | 177 kts | 45° |
| 2026-05-07 18:33 | 46.27758 | 6.16909 | 3909 ft | 198 kts | 45° |
| 2026-05-07 18:33 | 46.28804 | 6.18395 | 4174 ft | 223 kts | 44° |
| 2026-05-07 18:33 | 46.29971 | 6.20060 | 4547 ft | 247 kts | 45° |
| 2026-05-07 18:34 | 46.31227 | 6.21867 | 5159 ft | 260 kts | 45° |
| 2026-05-07 18:34 | 46.32526 | 6.23751 | 5913 ft | 268 kts | 45° |
| 2026-05-07 18:34 | 46.33860 | 6.25698 | 6659 ft | 276 kts | 46° |
| 2026-05-07 18:34 | 46.35237 | 6.27689 | 7373 ft | 283 kts | 42° |
| 2026-05-07 18:35 | 46.36946 | 6.29107 | 8120 ft | 289 kts | 14° |
| 2026-05-07 18:35 | 46.38952 | 6.29363 | 8862 ft | 293 kts | 356° |
| 2026-05-07 18:35 | 46.41007 | 6.29263 | 9646 ft | 298 kts | 356° |
| 2026-05-07 18:35 | 46.43096 | 6.29180 | 10342 ft | 306 kts | 356° |
| 2026-05-07 18:36 | 46.45305 | 6.29102 | 10596 ft | 329 kts | 356° |
| 2026-05-07 18:36 | 46.47647 | 6.29028 | 11056 ft | 342 kts | 357° |
| 2026-05-07 18:36 | 46.50038 | 6.28966 | 11771 ft | 346 kts | 357° |
| 2026-05-07 18:36 | 46.52451 | 6.28912 | 12526 ft | 348 kts | 357° |
| 2026-05-07 18:37 | 46.54881 | 6.28858 | 13295 ft | 350 kts | 357° |
| 2026-05-07 18:37 | 46.57327 | 6.28801 | 14023 ft | 353 kts | 357° |
| 2026-05-07 18:37 | 46.59787 | 6.28742 | 14658 ft | 355 kts | 357° |
| 2026-05-07 18:37 | 46.62268 | 6.28678 | 15307 ft | 358 kts | 356° |
| 2026-05-07 18:38 | 46.64760 | 6.28535 | 15941 ft | 359 kts | 351° |
| 2026-05-07 18:38 | 46.67203 | 6.27783 | 16573 ft | 359 kts | 339° |
| 2026-05-07 18:38 | 46.69494 | 6.26355 | 17181 ft | 359 kts | 329° |
| 2026-05-07 18:38 | 46.71677 | 6.24565 | 17819 ft | 361 kts | 328° |
| 2026-05-07 18:39 | 46.73877 | 6.22767 | 18437 ft | 364 kts | 328° |
| 2026-05-07 18:39 | 46.76091 | 6.20965 | 18962 ft | 366 kts | 328° |
| 2026-05-07 18:39 | 46.78294 | 6.19173 | 19499 ft | 368 kts | 328° |
| 2026-05-07 18:39 | 46.80568 | 6.17316 | 20046 ft | 371 kts | 328° |
| 2026-05-07 18:40 | 46.82796 | 6.15488 | 20565 ft | 374 kts | 328° |
| 2026-05-07 18:40 | 46.85069 | 6.13621 | 21072 ft | 376 kts | 328° |
| 2026-05-07 18:40 | 46.87356 | 6.11741 | 21575 ft | 379 kts | 328° |
| 2026-05-07 18:40 | 46.89660 | 6.09845 | 22073 ft | 381 kts | 328° |
| 2026-05-07 18:41 | 46.91977 | 6.07935 | 22567 ft | 384 kts | 328° |
| 2026-05-07 18:41 | 46.94310 | 6.06015 | 23056 ft | 386 kts | 328° |
| 2026-05-07 18:41 | 46.96720 | 6.04246 | 23519 ft | 391 kts | 336° |
| 2026-05-07 18:41 | 46.99346 | 6.03102 | 23913 ft | 397 kts | 346° |
| 2026-05-07 18:42 | 47.02113 | 6.02686 | 24295 ft | 404 kts | 356° |
| 2026-05-07 18:42 | 47.04933 | 6.02738 | 24684 ft | 407 kts | 358° |
| 2026-05-07 18:42 | 47.07772 | 6.02794 | 25059 ft | 409 kts | 357° |
| 2026-05-07 18:42 | 47.10629 | 6.02848 | 25427 ft | 411 kts | 358° |
| 2026-05-07 18:43 | 47.13495 | 6.02898 | 25784 ft | 414 kts | 357° |
| 2026-05-07 18:43 | 47.16382 | 6.02945 | 26144 ft | 416 kts | 357° |
| 2026-05-07 18:43 | 47.19285 | 6.02992 | 26496 ft | 419 kts | 357° |
| 2026-05-07 18:43 | 47.22206 | 6.03043 | 26844 ft | 421 kts | 357° |
| 2026-05-07 18:44 | 47.25146 | 6.03096 | 27216 ft | 423 kts | 357° |
| 2026-05-07 18:44 | 47.28097 | 6.03149 | 27564 ft | 425 kts | 357° |
| 2026-05-07 18:44 | 47.31062 | 6.03203 | 27903 ft | 428 kts | 357° |
| 2026-05-07 18:44 | 47.34047 | 6.03252 | 28243 ft | 430 kts | 357° |
| 2026-05-07 18:45 | 47.37047 | 6.03299 | 28579 ft | 432 kts | 357° |
| 2026-05-07 18:45 | 47.40062 | 6.03353 | 28891 ft | 435 kts | 357° |
| 2026-05-07 18:45 | 47.43095 | 6.03419 | 29206 ft | 437 kts | 357° |
| 2026-05-07 18:45 | 47.46146 | 6.03490 | 29555 ft | 439 kts | 357° |
| 2026-05-07 18:46 | 47.49206 | 6.03566 | 29882 ft | 441 kts | 357° |
| 2026-05-07 18:46 | 47.52280 | 6.03645 | 30176 ft | 443 kts | 357° |
| 2026-05-07 18:46 | 47.55373 | 6.03722 | 30427 ft | 445 kts | 357° |
| 2026-05-07 18:46 | 47.58467 | 6.03797 | 30671 ft | 447 kts | 357° |
| 2026-05-07 18:47 | 47.61551 | 6.03866 | 30907 ft | 449 kts | 357° |
| 2026-05-07 18:47 | 47.64680 | 6.03932 | 31158 ft | 451 kts | 358° |
| 2026-05-07 18:47 | 47.67812 | 6.04001 | 31474 ft | 450 kts | 358° |
| 2026-05-07 18:47 | 47.70945 | 6.04068 | 31820 ft | 449 kts | 357° |
| 2026-05-07 18:48 | 47.74067 | 6.04349 | 32147 ft | 452 kts | 5° |
| 2026-05-07 18:48 | 47.77155 | 6.05295 | 32464 ft | 454 kts | 11° |
| 2026-05-07 18:48 | 47.80216 | 6.06461 | 32776 ft | 454 kts | 11° |
| 2026-05-07 18:48 | 47.83279 | 6.07619 | 33123 ft | 454 kts | 11° |
| 2026-05-07 18:49 | 47.86342 | 6.08771 | 33460 ft | 454 kts | 11° |
| 2026-05-07 18:49 | 47.89404 | 6.09916 | 33686 ft | 456 kts | 11° |
| 2026-05-07 18:49 | 47.92496 | 6.11072 | 33813 ft | 459 kts | 11° |
| 2026-05-07 18:49 | 47.95606 | 6.12238 | 33963 ft | 463 kts | 11° |
| 2026-05-07 18:50 | 47.98741 | 6.13417 | 34097 ft | 466 kts | 11° |
| 2026-05-07 18:50 | 48.01895 | 6.14605 | 34215 ft | 469 kts | 11° |
| 2026-05-07 18:50 | 48.05066 | 6.15807 | 34333 ft | 472 kts | 11° |
| 2026-05-07 18:50 | 48.08258 | 6.17022 | 34473 ft | 474 kts | 11° |
| 2026-05-07 18:51 | 48.11456 | 6.18240 | 34649 ft | 475 kts | 11° |
| 2026-05-07 18:51 | 48.14667 | 6.19460 | 34848 ft | 476 kts | 11° |
| 2026-05-07 18:51 | 48.17876 | 6.20680 | 35061 ft | 476 kts | 11° |
| 2026-05-07 18:51 | 48.21090 | 6.21905 | 35271 ft | 476 kts | 11° |
| 2026-05-07 18:52 | 48.24303 | 6.23133 | 35471 ft | 477 kts | 11° |
| 2026-05-07 18:52 | 48.27513 | 6.24363 | 35687 ft | 477 kts | 11° |
| 2026-05-07 18:52 | 48.30731 | 6.25598 | 35895 ft | 476 kts | 11° |
| 2026-05-07 18:52 | 48.33940 | 6.26833 | 36034 ft | 477 kts | 11° |
| 2026-05-07 18:53 | 48.37158 | 6.28068 | 36059 ft | 477 kts | 11° |
| 2026-05-07 18:53 | 48.43595 | 6.30539 | 36060 ft | 477 kts | 11° |
| 2026-05-07 18:54 | 48.50026 | 6.33014 | 36063 ft | 477 kts | 11° |
| 2026-05-07 18:54 | 48.56441 | 6.35480 | 36058 ft | 476 kts | 11° |
| 2026-05-07 18:55 | 48.62861 | 6.37969 | 36058 ft | 476 kts | 12° |
| 2026-05-07 18:55 | 48.69353 | 6.39498 | 36059 ft | 471 kts | 0° |
| 2026-05-07 18:56 | 48.75859 | 6.40153 | 36057 ft | 471 kts | 1° |
| 2026-05-07 18:56 | 48.82401 | 6.40818 | 36057 ft | 471 kts | 1° |
| 2026-05-07 18:57 | 48.88944 | 6.41483 | 36055 ft | 471 kts | 1° |
| 2026-05-07 18:57 | 48.95482 | 6.42149 | 36064 ft | 471 kts | 1° |
| 2026-05-07 18:58 | 49.02017 | 6.42798 | 36063 ft | 471 kts | 1° |
| 2026-05-07 18:58 | 49.08560 | 6.43444 | 36064 ft | 471 kts | 359° |
| 2026-05-07 18:59 | 49.14985 | 6.42308 | 36078 ft | 463 kts | 342° |
| 2026-05-07 18:59 | 49.21205 | 6.39738 | 36074 ft | 463 kts | 342° |
| 2026-05-07 19:00 | 49.27437 | 6.37184 | 36075 ft | 464 kts | 342° |
| 2026-05-07 19:00 | 49.33389 | 6.33675 | 36072 ft | 455 kts | 323° |
| 2026-05-07 19:01 | 49.38555 | 6.28069 | 36066 ft | 455 kts | 322° |
| 2026-05-07 19:01 | 49.43681 | 6.22382 | 36062 ft | 455 kts | 321° |
| 2026-05-07 19:02 | 49.48806 | 6.16667 | 36056 ft | 455 kts | 321° |
| 2026-05-07 19:02 | 49.53949 | 6.10943 | 36056 ft | 456 kts | 321° |
| 2026-05-07 19:03 | 49.59093 | 6.05225 | 36071 ft | 456 kts | 322° |
| 2026-05-07 19:03 | 49.64243 | 5.99489 | 36070 ft | 456 kts | 321° |
| 2026-05-07 19:04 | 49.69380 | 5.93736 | 36070 ft | 457 kts | 321° |
| 2026-05-07 19:04 | 49.74520 | 5.87959 | 36075 ft | 457 kts | 321° |
| 2026-05-07 19:05 | 49.79658 | 5.82177 | 36077 ft | 457 kts | 321° |
| 2026-05-07 19:05 | 49.84790 | 5.76377 | 36098 ft | 457 kts | 321° |
| 2026-05-07 19:06 | 49.89923 | 5.70563 | 36090 ft | 457 kts | 321° |
| 2026-05-07 19:06 | 49.97586 | 5.61883 | 36091 ft | 457 kts | 321° |
| 2026-05-07 19:07 | 50.02718 | 5.56053 | 36093 ft | 457 kts | 321° |
| 2026-05-07 19:07 | 50.07836 | 5.50200 | 36099 ft | 456 kts | 321° |
| 2026-05-07 19:08 | 50.12937 | 5.44331 | 36096 ft | 456 kts | 321° |
| 2026-05-07 19:08 | 50.18044 | 5.38462 | 36092 ft | 456 kts | 321° |
| 2026-05-07 19:09 | 50.23158 | 5.32584 | 36094 ft | 456 kts | 321° |
| 2026-05-07 19:09 | 50.28269 | 5.26694 | 36096 ft | 457 kts | 321° |
| 2026-05-07 19:10 | 50.33377 | 5.20778 | 36108 ft | 457 kts | 321° |
| 2026-05-07 19:10 | 50.38481 | 5.14849 | 36099 ft | 457 kts | 321° |
| 2026-05-07 19:11 | 50.43581 | 5.08912 | 36104 ft | 457 kts | 321° |
| 2026-05-07 19:11 | 50.48667 | 5.02971 | 36041 ft | 452 kts | 321° |
| 2026-05-07 19:12 | 50.51157 | 5.00064 | 35903 ft | 438 kts | 321° |
| 2026-05-07 19:12 | 50.53570 | 4.97246 | 35500 ft | 427 kts | 320° |
| 2026-05-07 19:12 | 50.55923 | 4.94490 | 34997 ft | 419 kts | 320° |
| 2026-05-07 19:12 | 50.58241 | 4.91769 | 34459 ft | 412 kts | 320° |
| 2026-05-07 19:13 | 50.60516 | 4.89090 | 33900 ft | 406 kts | 320° |
| 2026-05-07 19:13 | 50.62759 | 4.86446 | 33254 ft | 400 kts | 320° |
| 2026-05-07 19:13 | 50.64975 | 4.83829 | 32598 ft | 396 kts | 320° |
| 2026-05-07 19:13 | 50.67163 | 4.81243 | 31955 ft | 391 kts | 320° |
| 2026-05-07 19:14 | 50.69331 | 4.78677 | 31322 ft | 388 kts | 320° |
| 2026-05-07 19:14 | 50.71479 | 4.76137 | 30696 ft | 384 kts | 320° |
| 2026-05-07 19:14 | 50.73604 | 4.73622 | 30075 ft | 380 kts | 320° |
| 2026-05-07 19:14 | 50.75708 | 4.71125 | 29371 ft | 377 kts | 320° |
| 2026-05-07 19:15 | 50.77789 | 4.68657 | 28683 ft | 373 kts | 320° |
| 2026-05-07 19:15 | 50.79857 | 4.66205 | 28042 ft | 369 kts | 320° |
| 2026-05-07 19:15 | 50.81904 | 4.63773 | 27400 ft | 366 kts | 320° |
| 2026-05-07 19:15 | 50.83925 | 4.61361 | 26764 ft | 362 kts | 320° |
| 2026-05-07 19:16 | 50.85927 | 4.58963 | 26143 ft | 359 kts | 320° |
| 2026-05-07 19:16 | 50.87916 | 4.56580 | 25590 ft | 358 kts | 320° |
| 2026-05-07 19:16 | 50.89789 | 4.54033 | 25148 ft | 353 kts | 311° |
| 2026-05-07 19:16 | 50.91310 | 4.51031 | 24716 ft | 347 kts | 300° |
| 2026-05-07 19:17 | 50.92565 | 4.47777 | 24267 ft | 345 kts | 299° |
| 2026-05-07 19:17 | 50.93813 | 4.44534 | 23831 ft | 344 kts | 299° |
| 2026-05-07 19:17 | 50.95061 | 4.41315 | 23367 ft | 342 kts | 299° |
| 2026-05-07 19:17 | 50.96303 | 4.38111 | 22890 ft | 340 kts | 299° |
| 2026-05-07 19:18 | 50.97536 | 4.34921 | 22434 ft | 338 kts | 299° |
| 2026-05-07 19:18 | 50.98758 | 4.31751 | 21992 ft | 336 kts | 299° |
| 2026-05-07 19:18 | 50.99972 | 4.28595 | 21557 ft | 334 kts | 299° |
| 2026-05-07 19:18 | 51.01180 | 4.25456 | 21126 ft | 332 kts | 300° |
| 2026-05-07 19:19 | 51.02365 | 4.22371 | 20721 ft | 331 kts | 300° |
| 2026-05-07 19:19 | 51.03556 | 4.19258 | 20299 ft | 329 kts | 300° |
| 2026-05-07 19:19 | 51.04738 | 4.16159 | 20075 ft | 328 kts | 299° |
| 2026-05-07 19:19 | 51.05916 | 4.13054 | 20084 ft | 329 kts | 299° |
| 2026-05-07 19:20 | 51.06714 | 4.10950 | 20085 ft | 329 kts | 299° |
| 2026-05-07 19:20 | 51.08284 | 4.06822 | 20086 ft | 329 kts | 300° |
| 2026-05-07 19:20 | 51.09643 | 4.03884 | 20086 ft | 331 kts | 310° |
| 2026-05-07 19:20 | 51.10755 | 4.02147 | 20086 ft | 332 kts | 318° |
| 2026-05-07 19:21 | 51.12604 | 3.99922 | 20087 ft | 334 kts | 322° |
| 2026-05-07 19:21 | 51.14475 | 3.97732 | 20084 ft | 334 kts | 321° |
| 2026-05-07 19:21 | 51.16336 | 3.95531 | 20084 ft | 334 kts | 321° |
| 2026-05-07 19:21 | 51.18194 | 3.93325 | 20084 ft | 334 kts | 321° |
| 2026-05-07 19:22 | 51.20058 | 3.91111 | 20084 ft | 334 kts | 321° |
| 2026-05-07 19:22 | 51.21999 | 3.89074 | 20083 ft | 335 kts | 330° |
| 2026-05-07 19:22 | 51.24132 | 3.87673 | 20084 ft | 338 kts | 342° |
| 2026-05-07 19:22 | 51.26473 | 3.86954 | 20084 ft | 340 kts | 353° |
| 2026-05-07 19:23 | 51.28815 | 3.86856 | 20088 ft | 341 kts | 358° |
| 2026-05-07 19:23 | 51.31190 | 3.86809 | 20087 ft | 342 kts | 357° |
| 2026-05-07 19:23 | 51.33567 | 3.86752 | 20086 ft | 342 kts | 357° |
| 2026-05-07 19:23 | 51.35944 | 3.86692 | 20086 ft | 342 kts | 357° |
| 2026-05-07 19:24 | 51.38315 | 3.86631 | 20086 ft | 342 kts | 357° |
| 2026-05-07 19:24 | 51.40694 | 3.86572 | 20084 ft | 342 kts | 357° |
| 2026-05-07 19:24 | 51.43105 | 3.86515 | 19844 ft | 341 kts | 357° |
| 2026-05-07 19:24 | 51.45441 | 3.86462 | 19600 ft | 339 kts | 357° |
| 2026-05-07 19:25 | 51.47797 | 3.86407 | 19357 ft | 338 kts | 357° |
| 2026-05-07 19:25 | 51.50141 | 3.86355 | 19113 ft | 337 kts | 357° |
| 2026-05-07 19:25 | 51.52479 | 3.86301 | 18880 ft | 335 kts | 358° |
| 2026-05-07 19:25 | 51.54804 | 3.86247 | 18601 ft | 334 kts | 358° |
| 2026-05-07 19:26 | 51.57128 | 3.86189 | 18189 ft | 333 kts | 358° |
| 2026-05-07 19:26 | 51.59446 | 3.86130 | 17768 ft | 332 kts | 358° |
| 2026-05-07 19:26 | 51.61748 | 3.86072 | 17368 ft | 330 kts | 358° |
| 2026-05-07 19:26 | 51.64040 | 3.86016 | 16970 ft | 329 kts | 357° |
| 2026-05-07 19:27 | 51.66325 | 3.85962 | 16573 ft | 328 kts | 358° |
| 2026-05-07 19:27 | 51.68604 | 3.85906 | 16175 ft | 328 kts | 358° |
| 2026-05-07 19:27 | 51.70874 | 3.86249 | 15779 ft | 328 kts | 12° |
| 2026-05-07 19:27 | 51.73020 | 3.87503 | 15377 ft | 329 kts | 27° |
| 2026-05-07 19:28 | 51.74907 | 3.89573 | 14983 ft | 330 kts | 41° |
| 2026-05-07 19:28 | 51.76620 | 3.92040 | 14572 ft | 330 kts | 41° |
| 2026-05-07 19:28 | 51.78328 | 3.94506 | 14165 ft | 330 kts | 41° |
| 2026-05-07 19:28 | 51.80040 | 3.96976 | 13749 ft | 330 kts | 41° |
| 2026-05-07 19:29 | 51.81754 | 3.99448 | 13327 ft | 329 kts | 41° |
| 2026-05-07 19:29 | 51.83456 | 4.01904 | 12926 ft | 328 kts | 41° |
| 2026-05-07 19:29 | 51.85150 | 4.04357 | 12521 ft | 326 kts | 41° |
| 2026-05-07 19:29 | 51.86833 | 4.06799 | 12130 ft | 324 kts | 41° |
| 2026-05-07 19:30 | 51.88504 | 4.09225 | 11729 ft | 322 kts | 41° |
| 2026-05-07 19:30 | 51.90299 | 4.11373 | 11345 ft | 320 kts | 27° |
| 2026-05-07 19:30 | 51.92365 | 4.12629 | 10937 ft | 317 kts | 11° |
| 2026-05-07 19:30 | 51.94543 | 4.12911 | 10561 ft | 313 kts | 355° |
| 2026-05-07 19:31 | 51.96708 | 4.12671 | 10255 ft | 309 kts | 355° |
| 2026-05-07 19:31 | 51.98818 | 4.12441 | 10113 ft | 299 kts | 355° |
| 2026-05-07 19:31 | 52.00850 | 4.12223 | 9796 ft | 296 kts | 355° |
| 2026-05-07 19:31 | 52.02889 | 4.12005 | 9346 ft | 292 kts | 355° |
| 2026-05-07 19:32 | 52.04915 | 4.11799 | 8812 ft | 291 kts | 358° |
| 2026-05-07 19:32 | 52.06917 | 4.12121 | 8362 ft | 287 kts | 13° |
| 2026-05-07 19:32 | 52.08776 | 4.13225 | 8004 ft | 284 kts | 25° |
| 2026-05-07 19:32 | 52.10560 | 4.14595 | 7659 ft | 284 kts | 25° |
| 2026-05-07 19:33 | 52.12348 | 4.15953 | 7309 ft | 283 kts | 25° |
| 2026-05-07 19:33 | 52.14128 | 4.17296 | 6962 ft | 281 kts | 25° |
| 2026-05-07 19:33 | 52.15894 | 4.18629 | 6622 ft | 279 kts | 25° |
| 2026-05-07 19:33 | 52.17658 | 4.19963 | 6265 ft | 278 kts | 25° |
| 2026-05-07 19:34 | 52.19324 | 4.21515 | 5930 ft | 275 kts | 39° |
| 2026-05-07 19:34 | 52.20644 | 4.23737 | 5595 ft | 272 kts | 56° |
| 2026-05-07 19:34 | 52.21518 | 4.26455 | 5264 ft | 270 kts | 71° |
| 2026-05-07 19:34 | 52.22148 | 4.29316 | 4997 ft | 264 kts | 71° |
| 2026-05-07 19:35 | 52.22761 | 4.32075 | 4867 ft | 252 kts | 72° |
| 2026-05-07 19:35 | 52.23267 | 4.34735 | 4706 ft | 240 kts | 83° |
| 2026-05-07 19:35 | 52.23267 | 4.37400 | 4471 ft | 231 kts | 102° |
| 2026-05-07 19:35 | 52.22766 | 4.39829 | 4336 ft | 224 kts | 117° |
| 2026-05-07 19:36 | 52.22101 | 4.42106 | 4094 ft | 222 kts | 116° |
| 2026-05-07 19:36 | 52.21447 | 4.44372 | 3864 ft | 219 kts | 116° |
| 2026-05-07 19:36 | 52.20934 | 4.46697 | 3599 ft | 218 kts | 99° |
| 2026-05-07 19:36 | 52.20854 | 4.49162 | 3295 ft | 219 kts | 91° |
| 2026-05-07 19:37 | 52.20834 | 4.51640 | 3007 ft | 217 kts | 85° |
| 2026-05-07 19:37 | 52.21279 | 4.53953 | 2745 ft | 215 kts | 60° |
| 2026-05-07 19:37 | 52.22079 | 4.56008 | 2471 ft | 214 kts | 58° |
| 2026-05-07 19:37 | 52.22877 | 4.58059 | 2189 ft | 213 kts | 59° |
| 2026-05-07 19:38 | 52.23646 | 4.60042 | 2023 ft | 200 kts | 58° |
| 2026-05-07 19:38 | 52.24361 | 4.61887 | 2023 ft | 182 kts | 59° |
| 2026-05-07 19:38 | 52.25010 | 4.63583 | 1698 ft | 174 kts | 60° |
| 2026-05-07 19:38 | 52.25624 | 4.65236 | 1419 ft | 163 kts | 59° |
| 2026-05-07 19:39 | 52.26215 | 4.66720 | 1142 ft | 152 kts | 57° |
| 2026-05-07 19:39 | 52.26766 | 4.68078 | 928 ft | 138 kts | 59° |
| 2026-05-07 19:39 | 52.27245 | 4.69411 | 728 ft | 134 kts | 60° |
| 2026-05-07 19:39 | 52.27738 | 4.70687 | 506 ft | 131 kts | 57° |
| 2026-05-07 19:40 | 52.28232 | 4.71967 | 299 ft | 133 kts | 58° |
| 2026-05-07 19:40 | 52.28721 | 4.73234 | 122 ft | 131 kts | 57° |
| 2026-05-07 19:40 | 52.29200 | 4.74477 | 8 ft | 122 kts | 57° |
| 2026-05-07 19:40 | 52.29597 | 4.75506 | -2 ft | 85 kts | 58° |
| 2026-05-07 19:41 | 52.29825 | 4.76098 | -4 ft | 55 kts | 59° |
| 2026-05-07 19:41 | 52.29996 | 4.76501 | -2 ft | 31 kts | 37° |
| 2026-05-07 19:41 | 52.30146 | 4.76640 | -1 ft | 18 kts | 27° |
| 2026-05-07 19:41 | 52.30227 | 4.76709 | -1 ft | 7 kts | 27° |
| 2026-05-07 19:42 | 52.30282 | 4.76739 | -1 ft | 10 kts | 4° |
| 2026-05-07 19:42 | 52.30341 | 4.76681 | -1 ft | 11 kts | 286° |
| 2026-05-07 19:42 | 52.30314 | 4.76572 | -1 ft | 10 kts | 239° |
| 2026-05-07 19:42 | 52.30279 | 4.76480 | -1 ft | 10 kts | 237° |
| 2026-05-07 19:43 | 52.30227 | 4.76346 | -1 ft | 15 kts | 238° |
| 2026-05-07 19:43 | 52.30173 | 4.76208 | -1 ft | 14 kts | 237° |
| 2026-05-07 19:43 | 52.30126 | 4.76079 | -1 ft | 14 kts | 238° |
| 2026-05-07 19:43 | 52.30059 | 4.75910 | -1 ft | 19 kts | 234° |
| 2026-05-07 19:44 | 52.29991 | 4.75721 | -1 ft | 20 kts | 239° |
| 2026-05-07 19:44 | 52.29917 | 4.75531 | -1 ft | 20 kts | 233° |
| 2026-05-07 19:44 | 52.29845 | 4.75345 | -1 ft | 16 kts | 243° |
| 2026-05-07 19:44 | 52.29851 | 4.75180 | -1 ft | 16 kts | 304° |
| 2026-05-07 19:45 | 52.29931 | 4.75027 | -1 ft | 21 kts | 312° |
| 2026-05-07 19:45 | 52.30055 | 4.74804 | 0 ft | 32 kts | 311° |
| 2026-05-07 19:45 | 52.30205 | 4.74524 | 10 ft | 33 kts | 311° |
| 2026-05-07 19:45 | 52.30331 | 4.74287 | -1 ft | 21 kts | 310° |
| 2026-05-07 19:46 | 52.30448 | 4.74198 | -1 ft | 20 kts | 2° |
| 2026-05-07 19:46 | 52.30607 | 4.74213 | -1 ft | 27 kts | 1° |
| 2026-05-07 19:46 | 52.30822 | 4.74231 | -1 ft | 34 kts | 4° |
| 2026-05-07 19:46 | 52.31064 | 4.74255 | -1 ft | 35 kts | 3° |
| 2026-05-07 19:47 | 52.31289 | 4.74276 | -1 ft | 25 kts | 3° |
| 2026-05-07 19:47 | 52.31387 | 4.74321 | -1 ft | 12 kts | 55° |
| 2026-05-07 19:47 | 52.31395 | 4.74477 | -1 ft | 17 kts | 87° |
| 2026-05-07 19:47 | 52.31402 | 4.74714 | -1 ft | 23 kts | 88° |
| 2026-05-07 19:48 | 52.31411 | 4.74978 | -1 ft | 22 kts | 86° |
| 2026-05-07 19:48 | 52.31415 | 4.75189 | -1 ft | 19 kts | 85° |
| 2026-05-07 19:48 | 52.31422 | 4.75366 | -1 ft | 14 kts | 89° |
| 2026-05-07 19:48 | 52.31366 | 4.75419 | -1 ft | 10 kts | 178° |
| 2026-05-07 19:49 | 52.31274 | 4.75424 | -1 ft | 19 kts | 177° |
| 2026-05-07 19:49 | 52.31155 | 4.75435 | -1 ft | 9 kts | 176° |
| 2026-05-07 19:49 | 52.31107 | 4.75395 | -1 ft | 8 kts | 237° |
| 2026-05-07 19:49 | 52.31080 | 4.75327 | -1 ft | 7 kts | 227° |
| 2026-05-07 19:50 | 52.31043 | 4.75292 | -1 ft | 6 kts | 209° |
| 2026-05-07 19:50 | 52.31012 | 4.75264 | -1 ft | 5 kts | 206° |
| 2026-05-07 19:50 | 52.30988 | 4.75276 | -1 ft | 3 kts | 147° |
| 2026-05-07 19:50 | 52.30973 | 4.75292 | -1 ft | 2 kts | 148° |
| 2026-05-07 19:51 | 52.30965 | 4.75300 | -1 ft | 1 kts | 148° |
| 2026-05-07 19:51 | 52.30962 | 4.75303 | -1 ft | 0 kts | 148° |